createdAt,value
2024-03-02T00:02:10.190Z,62.82
2024-03-02T00:04:40.966Z,61.96
2024-03-02T00:07:08.565Z,61.28
2024-03-02T00:09:41.811Z,60.35
2024-03-02T00:12:09.413Z,60.58
2024-03-02T00:14:39.757Z,63.56
2024-03-02T00:17:07.340Z,62.90
2024-03-02T00:19:36.133Z,60.71
2024-03-02T00:22:03.659Z,60.76
2024-03-02T00:24:30.950Z,62.23
2024-03-02T00:26:58.288Z,62.56
2024-03-02T00:29:26.366Z,61.04
2024-03-02T00:31:53.893Z,62.69
2024-03-02T00:34:20.986Z,61.30
2024-03-02T00:36:48.394Z,60.03
2024-03-02T00:39:16.383Z,59.72
2024-03-02T00:41:45.609Z,62.21
2024-03-02T00:44:12.833Z,61.21
2024-03-02T00:46:40.430Z,61.40
2024-03-02T00:49:07.641Z,61.97
2024-03-02T00:51:35.665Z,62.29
2024-03-02T00:54:03.035Z,60.79
2024-03-02T00:56:30.495Z,60.16
2024-03-02T00:58:57.817Z,62.38
2024-03-02T01:01:25.284Z,61.00
2024-03-02T01:03:52.526Z,61.77
2024-03-02T01:06:20.211Z,60.67
2024-03-02T01:08:47.331Z,61.04
2024-03-02T01:11:14.869Z,62.06
2024-03-02T01:13:41.918Z,61.81
2024-03-02T01:16:08.977Z,62.98
2024-03-02T01:18:36.238Z,62.32
2024-03-02T01:33:24.715Z,64.55
2024-03-02T01:35:52.332Z,64.33
2024-03-02T01:38:20.572Z,63.51
2024-03-02T01:40:48.687Z,61.40
2024-03-02T01:46:22.221Z,64.04
2024-03-02T01:48:49.999Z,62.11
2024-03-02T01:51:18.054Z,62.69
2024-03-02T01:53:46.332Z,62.25
2024-03-02T01:56:14.309Z,62.19
2024-03-02T01:58:42.563Z,61.56
2024-03-02T02:01:13.231Z,61.05
2024-03-02T02:03:41.500Z,62.41
2024-03-02T02:06:10.201Z,62.12
2024-03-02T02:08:38.687Z,62.57
2024-03-02T02:11:06.592Z,61.97
2024-03-02T02:13:33.995Z,62.04
2024-03-02T02:16:02.298Z,65.34
2024-03-02T02:18:31.006Z,63.78
2024-03-02T02:20:58.705Z,62.88
2024-03-02T02:23:28.378Z,62.23
2024-03-02T02:25:55.475Z,61.52
2024-03-02T02:28:23.468Z,60.45
2024-03-02T02:30:51.074Z,60.51
2024-03-02T02:33:18.603Z,60.79
2024-03-02T02:35:46.264Z,60.79
2024-03-02T02:38:13.868Z,63.30
2024-03-02T02:40:41.004Z,62.89
2024-03-02T02:43:08.412Z,62.30
2024-03-02T02:45:35.711Z,62.68
2024-03-02T02:48:02.902Z,62.96
2024-03-02T02:50:30.543Z,61.59
2024-03-02T02:52:58.089Z,60.34
2024-03-02T02:55:25.594Z,61.30
2024-03-02T02:57:53.013Z,62.20
2024-03-02T03:00:23.700Z,61.84
2024-03-02T03:02:51.543Z,62.25
2024-03-02T03:05:19.418Z,61.01
2024-03-02T03:07:47.345Z,60.19
2024-03-02T03:10:15.614Z,61.04
2024-03-02T03:12:43.376Z,59.79
2024-03-02T03:15:10.742Z,60.03
2024-03-02T03:17:38.089Z,60.02
2024-03-02T03:20:06.254Z,59.65
2024-03-02T03:22:34.417Z,61.88
2024-03-02T03:25:02.593Z,61.17
2024-03-02T03:27:30.876Z,59.62
2024-03-02T03:29:58.947Z,59.30
2024-03-02T03:32:27.237Z,61.27
2024-03-02T03:34:55.081Z,62.06
2024-03-02T03:37:23.530Z,62.36
2024-03-02T03:39:51.695Z,62.18
2024-03-02T03:42:19.221Z,61.24
2024-03-02T03:44:47.163Z,60.50
2024-03-02T03:47:14.634Z,59.96
2024-03-02T03:49:42.611Z,62.13
2024-03-02T03:52:10.070Z,61.73
2024-03-02T03:54:38.110Z,61.46
2024-03-02T03:57:06.175Z,60.99
2024-03-02T03:59:34.101Z,60.91
2024-03-02T04:02:01.563Z,59.67
2024-03-02T04:04:29.900Z,60.97
2024-03-02T04:06:57.890Z,59.88
2024-03-02T04:09:27.859Z,59.84
2024-03-02T04:11:55.719Z,60.84
2024-03-02T04:14:23.493Z,60.00
2024-03-02T04:16:53.220Z,59.38
2024-03-02T04:19:21.540Z,60.28
2024-03-02T04:21:52.665Z,60.80
2024-03-02T04:24:20.339Z,62.13
2024-03-02T04:26:49.996Z,61.53
2024-03-02T04:29:18.172Z,60.75
2024-03-02T04:31:46.199Z,60.88
2024-03-02T04:34:16.363Z,61.42
2024-03-02T04:36:44.241Z,61.32
2024-03-02T04:39:11.827Z,61.08
2024-03-02T04:41:39.592Z,61.28
2024-03-02T04:44:08.327Z,60.31
2024-03-02T04:46:36.120Z,61.41
2024-03-02T04:49:05.001Z,61.43
2024-03-02T04:51:36.201Z,60.63
2024-03-02T04:54:09.334Z,62.08
2024-03-02T04:56:56.134Z,61.30
2024-03-02T04:59:34.195Z,61.30
2024-03-02T05:02:02.226Z,59.89
2024-03-02T05:04:30.110Z,61.80
2024-03-02T05:06:57.794Z,61.43
2024-03-02T05:09:25.603Z,61.41
2024-03-02T05:11:54.282Z,60.68
2024-03-02T05:14:25.104Z,61.57
2024-03-02T05:16:52.587Z,60.32
2024-03-02T05:19:20.806Z,59.58
2024-03-02T05:21:48.411Z,61.47
2024-03-02T05:24:16.518Z,61.70
2024-03-02T05:26:50.514Z,61.50
2024-03-02T05:29:18.239Z,60.13
2024-03-02T05:31:45.367Z,60.70
2024-03-02T05:34:12.729Z,61.86
2024-03-02T05:36:40.552Z,62.12
2024-03-02T05:39:08.112Z,62.16
2024-03-02T05:41:40.269Z,59.88
2024-03-02T05:44:07.385Z,61.83
2024-03-02T05:46:34.809Z,62.31
2024-03-02T05:49:02.877Z,61.49
2024-03-02T05:51:30.704Z,62.04
2024-03-02T05:53:58.515Z,62.30
2024-03-02T05:56:26.044Z,62.72
2024-03-02T05:58:54.356Z,62.79
2024-03-02T06:01:22.221Z,63.08
2024-03-02T06:03:50.034Z,61.07
2024-03-02T06:06:17.334Z,61.38
2024-03-02T06:08:45.335Z,61.61
2024-03-02T06:11:13.232Z,60.37
2024-03-02T06:13:40.928Z,61.16
2024-03-02T06:16:08.390Z,61.82
2024-03-02T06:18:36.008Z,60.83
2024-03-02T06:21:04.180Z,60.07
2024-03-02T06:23:31.339Z,60.64
2024-03-02T06:26:00.933Z,61.21
2024-03-02T06:28:28.872Z,59.83
2024-03-02T06:30:56.645Z,58.81
2024-03-02T06:33:24.602Z,61.08
2024-03-02T06:35:53.151Z,61.47
2024-03-02T06:38:21.149Z,61.65
2024-03-02T06:40:49.169Z,60.74
2024-03-02T06:43:17.322Z,61.25
2024-03-02T06:45:45.543Z,62.26
2024-03-02T06:48:13.951Z,61.49
2024-03-02T06:50:42.317Z,60.78
2024-03-02T06:53:10.090Z,61.00
2024-03-02T06:55:37.444Z,60.83
2024-03-02T06:58:05.173Z,59.79
2024-03-02T07:00:33.502Z,60.75
2024-03-02T07:03:01.814Z,60.05
2024-03-02T07:05:30.617Z,59.70
2024-03-02T07:07:57.983Z,60.34
2024-03-02T07:10:27.298Z,59.91
2024-03-02T07:12:54.386Z,60.55
2024-03-02T07:15:22.108Z,59.49
2024-03-02T07:17:50.637Z,59.54
2024-03-02T07:20:19.098Z,59.86
2024-03-02T07:28:21.371Z,57.95
2024-03-02T07:30:48.890Z,59.05
2024-03-02T07:33:18.044Z,57.19
2024-03-02T07:35:46.102Z,56.01
2024-03-02T07:38:14.258Z,56.00
2024-03-02T07:40:43.666Z,56.33
2024-03-02T07:43:11.298Z,57.16
2024-03-02T07:45:39.178Z,56.52
2024-03-02T07:48:06.968Z,56.20
2024-03-02T07:50:37.009Z,55.40
2024-03-02T07:53:05.175Z,55.18
2024-03-02T07:58:26.735Z,55.71
2024-03-02T08:00:55.428Z,55.33
2024-03-02T08:03:23.077Z,56.47
2024-03-02T08:05:50.649Z,55.86
2024-03-02T08:08:20.310Z,55.57
2024-03-02T08:10:48.153Z,55.10
2024-03-02T08:13:16.048Z,53.97
2024-03-02T08:15:43.140Z,55.02
2024-03-02T08:18:10.685Z,54.57
2024-03-02T08:20:38.267Z,54.78
2024-03-02T08:23:05.950Z,54.86
2024-03-02T08:25:34.392Z,56.38
2024-03-02T08:28:02.331Z,55.73
2024-03-02T08:30:29.676Z,57.20
2024-03-02T08:32:57.073Z,57.39
2024-03-02T08:35:24.513Z,55.68
2024-03-02T08:37:52.443Z,55.36
2024-03-02T08:40:20.852Z,54.13
2024-03-02T08:42:48.413Z,54.20
2024-03-02T08:45:16.141Z,54.19
2024-03-02T08:47:44.086Z,52.64
2024-03-02T08:50:11.932Z,51.13
2024-03-02T08:52:39.133Z,49.56
2024-03-02T08:55:08.191Z,50.78
2024-03-02T08:57:35.532Z,50.12
2024-03-02T09:00:02.532Z,51.33
2024-03-02T09:02:30.116Z,52.33
2024-03-02T09:04:57.679Z,52.59
2024-03-02T09:07:24.890Z,51.48
2024-03-02T09:09:59.963Z,53.57
2024-03-02T09:12:28.444Z,51.84
2024-03-02T09:14:55.969Z,50.07
2024-03-02T09:17:23.628Z,46.54
2024-03-02T09:19:52.268Z,46.08
2024-03-02T09:22:19.914Z,45.83
2024-03-02T09:24:47.849Z,47.25
2024-03-02T09:27:18.760Z,47.97
2024-03-02T09:29:46.918Z,47.18
2024-03-02T09:32:15.108Z,47.86
2024-03-02T09:34:45.779Z,46.67
2024-03-02T09:37:16.485Z,47.21
2024-03-02T09:39:43.869Z,47.09
2024-03-02T09:42:11.798Z,46.52
2024-03-02T09:44:39.752Z,46.83
2024-03-02T09:47:07.678Z,46.22
2024-03-02T09:49:36.062Z,47.02
2024-03-02T09:52:04.333Z,47.02
2024-03-02T09:54:31.937Z,45.98
2024-03-02T09:56:59.467Z,46.66
2024-03-02T09:59:27.223Z,45.90
2024-03-02T10:01:54.791Z,45.03
2024-03-02T10:04:22.398Z,45.23
2024-03-02T10:06:50.851Z,45.42
2024-03-02T10:09:17.767Z,45.30
2024-03-02T10:11:45.145Z,45.55
2024-03-02T10:14:13.400Z,45.03
2024-03-02T10:16:47.453Z,44.48
2024-03-02T10:19:15.093Z,44.76
2024-03-02T10:21:42.102Z,45.11
2024-03-02T10:24:09.172Z,44.84
2024-03-02T10:26:36.651Z,45.77
2024-03-02T10:29:04.162Z,44.37
2024-03-02T10:31:31.750Z,44.24
2024-03-02T10:34:00.129Z,46.61
2024-03-02T10:36:27.137Z,46.31
2024-03-02T10:38:54.473Z,47.97
2024-03-02T10:41:21.538Z,49.41
2024-03-02T10:43:48.849Z,50.80
2024-03-02T10:46:16.062Z,50.52
2024-03-02T10:48:43.802Z,49.74
2024-03-02T10:51:11.238Z,49.96
2024-03-02T10:53:38.493Z,49.42
2024-03-02T10:56:06.180Z,49.32
2024-03-02T10:58:34.625Z,48.67
2024-03-02T11:01:02.124Z,47.39
2024-03-02T11:03:30.190Z,45.93
2024-03-02T11:05:58.998Z,45.61
2024-03-02T11:08:27.046Z,45.58
2024-03-02T11:10:54.731Z,46.10
2024-03-02T11:13:22.387Z,44.70
2024-03-02T11:15:49.878Z,41.96
2024-03-02T11:18:20.692Z,44.21
2024-03-02T11:20:49.117Z,43.19
2024-03-02T11:23:16.566Z,42.03
2024-03-02T11:25:44.136Z,42.98
2024-03-02T11:28:11.949Z,41.82
2024-03-02T11:30:42.224Z,42.37
2024-03-02T11:33:10.886Z,43.39
2024-03-02T11:35:45.256Z,46.17
2024-03-02T11:38:12.571Z,45.44
2024-03-02T11:40:40.696Z,44.00
2024-03-02T11:43:09.912Z,43.89
2024-03-02T11:45:38.247Z,43.98
2024-03-02T11:48:06.687Z,44.71
2024-03-02T11:50:34.783Z,45.08
2024-03-02T11:53:06.023Z,45.81
2024-03-02T11:55:34.969Z,45.60
2024-03-02T11:58:03.118Z,44.67
2024-03-02T12:00:31.481Z,44.09
2024-03-02T12:02:59.086Z,43.39
2024-03-02T12:05:27.249Z,44.43
2024-03-02T12:07:54.498Z,44.69
2024-03-02T12:10:21.614Z,46.09
2024-03-02T12:12:51.832Z,46.36
2024-03-02T12:15:19.659Z,46.60
2024-03-02T12:17:51.573Z,46.94
2024-03-02T12:20:19.628Z,47.20
2024-03-02T12:22:47.628Z,46.22
2024-03-02T12:25:15.338Z,45.46
2024-03-02T12:27:42.476Z,45.72
2024-03-02T12:30:09.531Z,45.16
2024-03-02T12:32:36.912Z,47.29
2024-03-02T12:35:04.401Z,44.34
2024-03-02T12:37:32.126Z,44.99
2024-03-02T12:39:59.387Z,43.66
2024-03-02T12:42:26.964Z,44.69
2024-03-02T12:44:54.785Z,43.13
2024-03-02T12:47:25.281Z,42.46
2024-03-02T12:49:52.910Z,42.23
2024-03-02T12:52:21.619Z,40.25
2024-03-02T12:54:49.697Z,41.64
2024-03-02T12:57:16.975Z,40.87
2024-03-02T12:59:44.062Z,41.13
2024-03-02T13:02:11.206Z,39.12
2024-03-02T13:04:38.928Z,40.59
2024-03-02T13:07:06.336Z,39.44
2024-03-02T13:09:33.932Z,40.41
2024-03-02T13:12:09.105Z,40.22
2024-03-02T13:14:37.088Z,40.27
2024-03-02T13:17:04.612Z,37.81
2024-03-02T13:19:31.781Z,36.50
2024-03-02T13:21:58.978Z,39.08
2024-03-02T13:24:28.998Z,37.79
2024-03-02T13:26:56.757Z,38.81
2024-03-02T13:29:24.652Z,38.63
2024-03-02T13:31:53.635Z,38.18
2024-03-02T13:34:21.159Z,38.33
2024-03-02T13:36:58.773Z,39.89
2024-03-02T13:39:26.647Z,38.93
2024-03-02T13:41:54.414Z,37.32
2024-03-02T13:44:25.201Z,39.16
2024-03-02T13:46:53.549Z,40.08
2024-03-02T13:49:21.417Z,40.28
2024-03-02T13:51:49.436Z,40.51
2024-03-02T13:54:17.046Z,42.72
2024-03-02T13:56:48.604Z,42.14
2024-03-02T13:59:19.242Z,41.22
2024-03-02T14:01:47.605Z,42.75
2024-03-02T14:04:16.721Z,41.74
2024-03-02T14:06:45.160Z,41.70
2024-03-02T14:09:13.611Z,41.42
2024-03-02T14:11:40.747Z,42.34
2024-03-02T14:14:09.009Z,42.32
2024-03-02T14:16:36.437Z,42.13
2024-03-02T14:19:04.064Z,42.96
2024-03-02T14:21:31.939Z,42.36
2024-03-02T14:23:59.686Z,42.15
2024-03-02T14:26:26.875Z,43.05
2024-03-02T14:28:56.580Z,43.79
2024-03-02T14:31:24.070Z,45.34
2024-03-02T14:33:51.581Z,44.70
2024-03-02T14:36:18.973Z,46.09
2024-03-02T14:38:46.145Z,46.98
2024-03-02T14:41:13.568Z,44.49
2024-03-02T14:43:40.941Z,44.16
2024-03-02T14:46:08.423Z,45.52
2024-03-02T14:48:37.334Z,44.86
2024-03-02T14:51:04.493Z,44.78
2024-03-02T14:53:32.135Z,46.34
2024-03-02T14:55:59.809Z,46.69
2024-03-02T14:58:27.697Z,46.10
2024-03-02T15:00:55.392Z,47.34
2024-03-02T15:03:23.152Z,49.31
2024-03-02T15:05:50.420Z,49.07
2024-03-02T15:08:26.749Z,48.66
2024-03-02T15:10:54.735Z,47.28
2024-03-02T15:13:23.448Z,45.87
2024-03-02T15:15:53.680Z,46.21
2024-03-02T15:18:21.399Z,47.07
2024-03-02T15:20:49.389Z,47.43
2024-03-02T15:23:17.176Z,45.99
2024-03-02T15:25:45.122Z,46.22
2024-03-02T15:28:13.311Z,47.10
2024-03-02T15:30:41.759Z,46.44
2024-03-02T15:33:12.514Z,47.27
2024-03-02T15:35:42.423Z,48.02
2024-03-02T15:38:18.265Z,47.14
2024-03-02T15:40:52.902Z,47.53
2024-03-02T15:43:20.356Z,46.57
2024-03-02T15:45:48.168Z,47.40
2024-03-02T15:48:16.355Z,46.71
2024-03-02T15:50:46.317Z,47.71
2024-03-02T15:53:15.840Z,47.78
2024-03-02T15:55:43.356Z,47.68
2024-03-02T15:58:11.509Z,48.61
2024-03-02T16:00:39.252Z,49.52
2024-03-02T16:03:09.064Z,50.50
2024-03-02T16:05:37.159Z,50.40
2024-03-02T16:08:04.859Z,49.30
2024-03-02T16:10:32.694Z,50.51
2024-03-02T16:13:00.496Z,50.00
2024-03-02T16:15:27.792Z,51.94
2024-03-02T16:17:55.925Z,51.77
2024-03-02T16:20:24.257Z,51.58
2024-03-02T16:22:52.145Z,50.67
2024-03-02T16:25:20.086Z,50.34
2024-03-02T16:27:47.719Z,50.38
2024-03-02T16:30:16.136Z,50.30
2024-03-02T16:32:44.052Z,50.44
2024-03-02T16:35:27.188Z,50.55
2024-03-02T16:37:55.213Z,50.42
2024-03-02T16:40:23.176Z,49.54
2024-03-02T16:42:54.324Z,50.08
2024-03-02T16:45:22.884Z,49.63
2024-03-02T16:47:50.875Z,50.55
2024-03-02T16:50:19.384Z,50.33
2024-03-02T16:52:50.994Z,51.11
2024-03-02T16:55:21.636Z,50.34
2024-03-02T16:57:49.773Z,50.83
2024-03-02T17:00:17.591Z,49.95
2024-03-02T17:02:46.254Z,51.23
2024-03-02T17:05:15.025Z,51.19
2024-03-02T17:07:43.011Z,50.87
2024-03-02T17:10:11.355Z,50.80
2024-03-02T17:12:38.984Z,49.66
2024-03-02T17:15:07.237Z,50.30
2024-03-02T17:17:35.024Z,50.26
2024-03-02T17:20:02.960Z,52.45
2024-03-02T17:22:30.484Z,52.42
2024-03-02T17:24:58.762Z,50.30
2024-03-02T17:27:25.881Z,50.91
2024-03-02T17:29:53.152Z,51.14
2024-03-02T17:32:20.926Z,50.59
2024-03-02T17:34:48.476Z,51.65
2024-03-02T17:37:16.112Z,51.78
2024-03-02T17:39:43.574Z,51.87
2024-03-02T17:42:11.005Z,52.38
2024-03-02T17:44:38.406Z,51.47
2024-03-02T17:47:05.718Z,52.08
2024-03-02T17:49:32.837Z,52.22
2024-03-02T17:52:03.550Z,51.34
2024-03-02T17:54:30.920Z,52.05
2024-03-02T17:56:58.685Z,52.93
2024-03-02T17:59:25.731Z,53.22
2024-03-02T18:01:53.008Z,52.45
2024-03-02T18:04:21.150Z,53.13
2024-03-02T18:06:48.232Z,53.64
2024-03-02T18:09:15.694Z,53.94
2024-03-02T18:11:43.444Z,54.28
2024-03-02T18:14:10.770Z,54.98
2024-03-02T18:16:38.023Z,55.58
2024-03-02T18:19:07.512Z,54.99
2024-03-02T18:21:37.028Z,54.87
2024-03-02T18:24:04.061Z,54.93
2024-03-02T18:26:32.255Z,55.12
2024-03-02T18:29:01.166Z,54.82
2024-03-02T18:31:29.670Z,55.01
2024-03-02T18:33:57.470Z,55.70
2024-03-02T18:36:25.164Z,54.18
2024-03-02T18:38:52.885Z,53.97
2024-03-02T18:41:20.838Z,53.97
2024-03-02T18:43:49.022Z,54.52
2024-03-02T18:46:17.957Z,53.74
2024-03-02T18:48:48.398Z,55.31
2024-03-02T18:51:16.823Z,54.97
2024-03-02T18:53:43.921Z,55.49
2024-03-02T18:56:11.389Z,55.50
2024-03-02T18:58:40.809Z,55.49
2024-03-02T19:01:16.484Z,55.77
2024-03-02T19:03:44.031Z,56.85
2024-03-02T19:06:11.164Z,57.38
2024-03-02T19:08:38.076Z,57.79
2024-03-02T19:11:05.653Z,57.91
2024-03-02T19:13:33.334Z,57.33
2024-03-02T19:16:01.024Z,58.21
2024-03-02T19:18:28.190Z,58.70
2024-03-02T19:20:55.723Z,58.53
2024-03-02T19:23:28.997Z,56.71
2024-03-02T19:26:00.462Z,57.46
2024-03-02T19:28:27.487Z,58.79
2024-03-02T19:30:54.982Z,59.08
2024-03-02T19:33:22.582Z,58.60
2024-03-02T19:35:52.703Z,59.47
2024-03-02T19:38:20.005Z,58.59
2024-03-02T19:40:47.473Z,59.53
2024-03-02T19:43:17.573Z,59.61
2024-03-02T19:45:45.602Z,58.15
2024-03-02T19:48:12.939Z,59.52
2024-03-02T19:50:40.424Z,59.21
2024-03-02T19:53:10.560Z,58.41
2024-03-02T19:55:38.532Z,57.88
2024-03-02T19:58:06.222Z,59.14
2024-03-02T20:00:34.100Z,58.16
2024-03-02T20:03:03.229Z,58.81
2024-03-02T20:05:31.710Z,59.01
2024-03-02T20:07:58.944Z,58.51
2024-03-02T20:10:26.333Z,58.08
2024-03-02T20:12:53.630Z,59.56
2024-03-02T20:15:21.050Z,58.10
2024-03-02T20:17:48.205Z,58.07
2024-03-02T20:20:15.784Z,58.83
2024-03-02T20:22:45.729Z,59.93
2024-03-02T20:25:15.223Z,58.92
2024-03-02T20:27:42.526Z,59.20
2024-03-02T20:30:10.200Z,59.10
2024-03-02T20:32:37.667Z,58.98
2024-03-02T20:35:05.011Z,59.65
2024-03-02T20:37:32.204Z,59.36
2024-03-02T20:40:00.131Z,59.27
2024-03-02T20:42:27.838Z,59.75
2024-03-02T20:44:55.306Z,59.67
2024-03-02T20:47:22.394Z,57.05
2024-03-02T20:49:49.838Z,57.76
2024-03-02T20:52:17.924Z,58.67
2024-03-02T20:54:45.383Z,58.31
2024-03-02T20:57:12.688Z,56.77
2024-03-02T20:59:39.838Z,57.13
2024-03-02T21:02:07.529Z,56.26
2024-03-02T21:04:34.790Z,57.44
2024-03-02T21:07:02.726Z,58.07
2024-03-02T21:09:30.895Z,56.99
2024-03-02T21:11:58.788Z,56.54
2024-03-02T21:14:27.444Z,55.02
2024-03-02T21:16:54.989Z,56.53
2024-03-02T21:19:23.427Z,56.89
2024-03-02T21:21:51.206Z,56.35
2024-03-02T21:24:20.125Z,56.37
2024-03-02T21:26:48.476Z,57.53
2024-03-02T21:29:16.340Z,57.23
2024-03-02T21:31:43.732Z,54.42
2024-03-02T21:34:13.762Z,54.20
2024-03-02T21:36:41.977Z,56.53
2024-03-02T21:39:12.347Z,56.62
2024-03-02T21:41:41.485Z,56.79
2024-03-02T21:44:11.313Z,55.62
2024-03-02T21:46:38.809Z,53.76
2024-03-02T21:49:05.773Z,54.97
2024-03-02T21:51:33.085Z,55.34
2024-03-02T21:54:00.408Z,55.73
2024-03-02T21:56:28.399Z,55.38
2024-03-02T21:58:55.773Z,55.06
2024-03-02T22:01:23.346Z,56.34
2024-03-02T22:03:50.880Z,55.63
2024-03-02T22:06:18.150Z,55.73
2024-03-02T22:08:45.697Z,56.01
2024-03-02T22:11:13.546Z,56.94
2024-03-02T22:13:40.993Z,57.08
2024-03-02T22:16:08.731Z,57.45
2024-03-02T22:18:36.446Z,55.31
2024-03-02T22:21:03.778Z,56.39
2024-03-02T22:23:30.922Z,56.14
2024-03-02T22:25:58.381Z,56.04
2024-03-02T22:28:26.208Z,55.01
2024-03-02T22:30:53.781Z,55.97
2024-03-02T22:33:21.355Z,55.33
2024-03-02T22:35:48.842Z,57.42
2024-03-02T22:38:18.697Z,57.00
2024-03-02T22:40:46.041Z,56.76
2024-03-02T22:43:14.797Z,55.62
2024-03-02T22:45:43.025Z,56.36
2024-03-02T22:48:10.567Z,55.56
2024-03-02T22:50:38.225Z,55.46
2024-03-02T22:53:06.429Z,55.60
2024-03-02T22:55:35.365Z,55.70
2024-03-02T22:58:03.206Z,55.95
2024-03-02T23:00:31.360Z,55.27
2024-03-02T23:02:59.779Z,54.09
2024-03-02T23:05:28.774Z,54.72
2024-03-02T23:07:56.547Z,53.32
2024-03-02T23:10:24.193Z,55.14
2024-03-02T23:12:52.909Z,55.37
2024-03-02T23:15:21.191Z,55.34
2024-03-02T23:17:50.063Z,54.59
2024-03-02T23:20:17.831Z,55.58
2024-03-02T23:22:45.885Z,56.01
2024-03-02T23:25:14.203Z,56.64
2024-03-02T23:27:45.375Z,56.54
2024-03-02T23:30:13.126Z,56.83
2024-03-02T23:32:40.809Z,57.07
2024-03-02T23:35:08.833Z,56.41
2024-03-02T23:37:37.846Z,56.04
2024-03-02T23:40:06.941Z,57.86
2024-03-02T23:42:34.569Z,57.51
2024-03-02T23:45:02.562Z,57.49
2024-03-02T23:47:31.284Z,58.57
2024-03-02T23:49:59.641Z,58.72
2024-03-02T23:52:27.562Z,59.27
2024-03-02T23:54:56.531Z,58.17
2024-03-02T23:57:24.480Z,57.50
2024-03-02T23:59:52.705Z,58.62
